createdAt,value
2018-11-29T00:00:01.741Z,96.91
2018-11-29T00:05:02.009Z,96.95
2018-11-29T00:10:01.285Z,96.95
2018-11-29T00:15:01.572Z,96.91
2018-11-29T00:20:01.850Z,96.73
2018-11-29T00:25:02.106Z,96.83
2018-11-29T00:30:01.380Z,96.99
2018-11-29T00:35:01.687Z,97.05
2018-11-29T00:40:01.966Z,97.12
2018-11-29T00:45:01.271Z,97.15
2018-11-29T00:50:01.577Z,97.28
2018-11-29T00:55:01.855Z,97.27
2018-11-29T01:00:02.123Z,97.29
2018-11-29T01:05:01.424Z,97.16
2018-11-29T01:10:01.715Z,97.24
2018-11-29T01:15:01.971Z,97.11
2018-11-29T01:20:01.317Z,97.08
2018-11-29T01:25:01.595Z,97.16
2018-11-29T01:30:01.864Z,97.04
2018-11-29T01:35:02.140Z,97.08
2018-11-29T01:40:01.550Z,97.11
2018-11-29T01:45:01.924Z,97.15
2018-11-29T01:50:01.440Z,97.21
2018-11-29T01:55:01.822Z,97.15
2018-11-29T02:00:02.102Z,97.02
2018-11-29T02:05:01.527Z,97.06
2018-11-29T02:10:01.880Z,96.97
2018-11-29T02:15:01.994Z,97.04
2018-11-29T02:20:01.280Z,97.11
2018-11-29T02:25:01.529Z,97.15
2018-11-29T02:30:01.827Z,97.17
2018-11-29T02:35:02.115Z,97.17
2018-11-29T02:40:01.393Z,97.21
2018-11-29T02:45:01.690Z,97.28
2018-11-29T02:50:01.969Z,97.34
2018-11-29T02:55:01.248Z,97.19
2018-11-29T03:00:01.528Z,97.39
2018-11-29T03:05:01.813Z,97.43
2018-11-29T03:10:02.102Z,97.5
2018-11-29T03:15:01.400Z,97.51
2018-11-29T03:20:01.761Z,97.66
2018-11-29T03:25:02.014Z,97.62
2018-11-29T03:30:01.393Z,97.64
2018-11-29T03:35:01.653Z,97.69
2018-11-29T03:40:01.690Z,97.63
2018-11-29T03:45:01.991Z,97.73
2018-11-29T03:50:01.285Z,97.73
2018-11-29T03:55:01.570Z,97.7
2018-11-29T04:00:01.870Z,97.79
2018-11-29T04:05:02.148Z,97.82
2018-11-29T04:10:01.396Z,97.86
2018-11-29T04:15:01.722Z,97.9
2018-11-29T04:20:01.953Z,97.94
2018-11-29T04:25:01.252Z,98.08
2018-11-29T04:30:01.694Z,98.18
2018-11-29T04:35:01.956Z,98.15
2018-11-29T04:40:01.242Z,98.21
2018-11-29T04:45:01.570Z,98.23
2018-11-29T04:50:01.838Z,97.93
2018-11-29T04:55:02.075Z,98.17
2018-11-29T05:00:01.317Z,96.82
2018-11-29T05:05:01.693Z,97.99
2018-11-29T05:10:01.961Z,97.99
2018-11-29T05:15:01.228Z,97.82
2018-11-29T05:20:01.502Z,97.69
2018-11-29T05:25:01.792Z,97.75
2018-11-29T05:30:02.087Z,97.69
2018-11-29T05:35:01.539Z,97.63
2018-11-29T05:40:01.264Z,97.5
2018-11-29T05:45:01.559Z,97.37
2018-11-29T05:50:01.801Z,97.34
2018-11-29T05:55:02.027Z,97.63
2018-11-29T06:00:01.292Z,97.95
2018-11-29T06:05:01.609Z,98.14
2018-11-29T06:10:01.882Z,98.12
2018-11-29T06:15:02.099Z,97.82
2018-11-29T06:20:01.364Z,97.95
2018-11-29T06:25:01.677Z,98.34
2018-11-29T06:30:01.955Z,98.24
2018-11-29T06:35:01.274Z,95.31
2018-11-29T06:40:01.562Z,98.33
2018-11-29T06:45:01.847Z,98.22
2018-11-29T06:50:02.059Z,97.99
2018-11-29T06:55:01.293Z,98.03
2018-11-29T07:00:01.530Z,97.64
2018-11-29T07:05:01.844Z,97.39
2018-11-29T07:10:02.083Z,97.53
2018-11-29T07:15:01.366Z,97.4
2018-11-29T07:20:01.647Z,97.2
2018-11-29T07:25:01.925Z,97
2018-11-29T07:30:01.195Z,96.65
2018-11-29T07:35:01.507Z,96.45
2018-11-29T07:40:01.782Z,96.19
2018-11-29T07:45:02.028Z,95.83
2018-11-29T07:50:01.291Z,95.57
2018-11-29T07:55:01.576Z,95.38
2018-11-29T08:00:01.832Z,95
2018-11-29T08:05:02.078Z,94.95
2018-11-29T08:10:01.345Z,94.85
2018-11-29T08:15:01.608Z,94.57
2018-11-29T08:20:01.903Z,94.41
2018-11-29T08:25:02.122Z,94.2
2018-11-29T08:30:01.410Z,93.86
2018-11-29T08:35:01.671Z,93.64
2018-11-29T08:40:01.914Z,93.3
2018-11-29T08:45:02.182Z,93.6
2018-11-29T08:50:01.458Z,93.35
2018-11-29T08:55:01.730Z,93.48
2018-11-29T09:00:01.999Z,93.12
2018-11-29T09:05:01.294Z,92.91
2018-11-29T09:10:01.552Z,92.81
2018-11-29T09:15:01.861Z,92.71
2018-11-29T09:20:02.087Z,92.94
2018-11-29T09:25:01.356Z,92.92
2018-11-29T09:30:01.630Z,92.91
2018-11-29T09:35:01.928Z,93.51
2018-11-29T09:40:01.167Z,94.01
2018-11-29T09:45:01.450Z,94.64
2018-11-29T09:50:01.735Z,94.63
2018-11-29T09:55:02.000Z,94.57
2018-11-29T10:00:01.241Z,94.11
2018-11-29T10:05:01.517Z,93.81
2018-11-29T10:10:01.779Z,93.4
2018-11-29T10:15:02.108Z,92.89
2018-11-29T10:20:01.366Z,92.93
2018-11-29T10:25:01.736Z,92.53
2018-11-29T10:30:02.009Z,92.29
2018-11-29T10:35:01.322Z,92
2018-11-29T10:40:01.606Z,91.72
2018-11-29T10:45:01.870Z,91.79
2018-11-29T10:50:02.130Z,91.87
2018-11-29T10:55:01.355Z,91.98
2018-11-29T11:00:01.627Z,91.84
2018-11-29T11:05:01.878Z,92.06
2018-11-29T11:10:02.119Z,92.42
2018-11-29T11:15:01.360Z,92.64
2018-11-29T11:20:01.679Z,94
2018-11-29T11:25:01.966Z,93.35
2018-11-29T11:30:01.329Z,92.7
2018-11-29T11:35:01.617Z,92.61
2018-11-29T11:40:01.853Z,92.65
2018-11-29T11:45:02.074Z,92.66
2018-11-29T11:50:01.350Z,92.52
2018-11-29T11:55:01.602Z,92.63
2018-11-29T12:00:01.934Z,92.16
2018-11-29T12:05:01.257Z,92.19
2018-11-29T12:10:01.533Z,92.53
2018-11-29T12:15:01.787Z,92.61
2018-11-29T12:20:02.018Z,92.34
2018-11-29T12:25:01.283Z,92.16
2018-11-29T12:30:01.570Z,91.55
2018-11-29T12:35:01.854Z,91.58
2018-11-29T12:40:02.096Z,91.52
2018-11-29T12:45:01.363Z,91.29
2018-11-29T12:50:01.816Z,91.35
2018-11-29T12:55:01.283Z,91.13
2018-11-29T13:00:01.572Z,91.03
2018-11-29T13:05:01.863Z,90.47
2018-11-29T13:10:02.303Z,90.59
2018-11-29T13:15:01.874Z,90.45
2018-11-29T13:20:01.248Z,90.12
2018-11-29T13:25:01.530Z,89.81
2018-11-29T13:30:01.801Z,89.65
2018-11-29T13:35:02.054Z,89.44
2018-11-29T13:40:01.314Z,89.35
2018-11-29T13:45:01.604Z,89.13
2018-11-29T13:50:01.851Z,89.18
2018-11-29T13:55:02.078Z,88.97
2018-11-29T14:00:01.318Z,89.03
2018-11-29T14:05:01.589Z,89.21
2018-11-29T14:10:01.840Z,89.03
2018-11-29T14:15:02.073Z,89.17
2018-11-29T14:20:01.535Z,89.09
2018-11-29T14:25:01.346Z,89.15
2018-11-29T14:30:01.667Z,88.91
2018-11-29T14:35:01.982Z,88.61
2018-11-29T14:40:01.225Z,88.63
2018-11-29T14:45:01.516Z,88.68
2018-11-29T14:50:01.821Z,88.79
2018-11-29T14:55:02.073Z,88.78
2018-11-29T15:00:01.339Z,88.65
2018-11-29T15:05:01.684Z,88.85
2018-11-29T15:10:01.977Z,88.83
2018-11-29T15:15:01.415Z,88.97
2018-11-29T15:20:01.728Z,89.06
2018-11-29T15:25:02.002Z,89.17
2018-11-29T15:30:01.284Z,88.84
2018-11-29T15:35:01.594Z,89.01
2018-11-29T15:40:01.958Z,88.94
2018-11-29T15:45:01.331Z,88.68
2018-11-29T15:50:01.680Z,88.35
2018-11-29T15:55:02.055Z,88.09
2018-11-29T16:00:01.361Z,88.05
2018-11-29T16:05:01.659Z,88.03
2018-11-29T16:10:01.941Z,87.92
2018-11-29T16:15:01.205Z,87.7
2018-11-29T16:20:01.513Z,87.69
2018-11-29T16:25:01.856Z,87.52
2018-11-29T16:30:02.105Z,87.12
2018-11-29T16:35:01.391Z,87.11
2018-11-29T16:40:01.677Z,87.11
2018-11-29T16:45:01.971Z,87.04
2018-11-29T16:50:01.225Z,86.97
2018-11-29T16:55:01.499Z,86.66
2018-11-29T17:00:01.786Z,86.45
2018-11-29T17:05:02.066Z,86.53
2018-11-29T17:10:01.329Z,86.5
2018-11-29T17:15:01.659Z,86.46
2018-11-29T17:20:01.958Z,86.3
2018-11-29T17:25:01.262Z,86.48
2018-11-29T17:30:01.556Z,86.43
2018-11-29T17:35:01.858Z,86.43
2018-11-29T17:40:02.132Z,86.43
2018-11-29T17:45:01.405Z,86.37
2018-11-29T17:50:01.704Z,86.37
2018-11-29T17:55:02.003Z,86.35
2018-11-29T18:00:01.290Z,86.09
2018-11-29T18:05:01.569Z,86.08
2018-11-29T18:10:01.846Z,86.05
2018-11-29T18:15:02.115Z,86.07
2018-11-29T18:20:01.370Z,86.08
2018-11-29T18:25:01.679Z,86.12
2018-11-29T18:30:01.977Z,86.2
2018-11-29T18:35:01.300Z,86.36
2018-11-29T18:40:01.592Z,86.53
2018-11-29T18:45:01.865Z,86.48
2018-11-29T18:50:02.130Z,86.62
2018-11-29T18:55:01.392Z,86.59
2018-11-29T19:00:01.679Z,86.71
2018-11-29T19:05:01.942Z,86.51
2018-11-29T19:10:01.258Z,86.44
2018-11-29T19:15:01.547Z,86.46
2018-11-29T19:20:01.842Z,86.37
2018-11-29T19:25:02.135Z,86.18
2018-11-29T19:30:04.512Z,86.02
2018-11-29T19:35:01.850Z,85.79
2018-11-29T19:40:02.078Z,85.63
2018-11-29T19:45:01.376Z,85.26
2018-11-29T19:50:01.672Z,85.21
2018-11-29T19:55:01.953Z,84.92
2018-11-29T20:00:01.210Z,85.09
2018-11-29T20:05:01.546Z,85.19
2018-11-29T20:10:01.810Z,84.63
2018-11-29T20:15:02.080Z,84.47
2018-11-29T20:20:01.351Z,84.19
2018-11-29T20:25:01.660Z,84.27
2018-11-29T20:30:01.928Z,84.02
2018-11-29T20:35:01.223Z,84.17
2018-11-29T20:40:01.514Z,84.21
2018-11-29T20:45:01.844Z,84.02
2018-11-29T20:50:01.541Z,84.03
2018-11-29T20:55:01.833Z,84.09
2018-11-29T21:00:02.106Z,83.98
2018-11-29T21:05:01.547Z,84.08
2018-11-29T21:10:03.297Z,84.16
2018-11-29T21:15:01.804Z,84.07
2018-11-29T21:20:02.063Z,83.9
2018-11-29T21:25:01.282Z,83.98
2018-11-29T21:30:01.543Z,83.82
2018-11-29T21:35:01.939Z,83.82
2018-11-29T21:40:01.254Z,84.12
2018-11-29T21:45:01.539Z,83.88
2018-11-29T21:50:01.841Z,83.8
2018-11-29T21:55:02.115Z,83.78
2018-11-29T22:00:01.407Z,83.8
2018-11-29T22:05:01.700Z,83.77
2018-11-29T22:10:01.977Z,83.73
2018-11-29T22:15:01.251Z,84.07
2018-11-29T22:20:01.544Z,84.09
2018-11-29T22:25:01.782Z,84.23
2018-11-29T22:30:02.045Z,84.56
2018-11-29T22:35:01.331Z,84.63
2018-11-29T22:40:01.639Z,84.44
2018-11-29T22:45:01.922Z,84.68
2018-11-29T22:50:01.231Z,85.03
2018-11-29T22:55:01.503Z,85.08
2018-11-29T23:00:01.815Z,85.09
2018-11-29T23:05:02.050Z,85.3
2018-11-29T23:10:01.337Z,85.63
2018-11-29T23:15:01.629Z,85.85
2018-11-29T23:20:01.891Z,85.66
2018-11-29T23:25:02.138Z,85.72
2018-11-29T23:30:01.414Z,85.85
2018-11-29T23:35:01.732Z,85.92
2018-11-29T23:40:02.017Z,86.06
2018-11-29T23:45:01.343Z,86.33
2018-11-29T23:50:01.633Z,86.33
2018-11-29T23:55:01.907Z,86.36
